sensor_id;sensor_type;location;lat;lon;timestamp;temperature;humidity
40676;DHT22;26359;48.750;9.314;2022-12-19T00:01:01;-2.10;99.90
40676;DHT22;26359;48.750;9.314;2022-12-19T00:03:27;-2.10;99.90
40676;DHT22;26359;48.750;9.314;2022-12-19T00:05:52;-2.10;99.90
40676;DHT22;26359;48.750;9.314;2022-12-19T00:08:18;-2.00;99.90
40676;DHT22;26359;48.750;9.314;2022-12-19T00:10:52;-2.00;99.90
40676;DHT22;26359;48.750;9.314;2022-12-19T00:13:18;-2.00;99.90
40676;DHT22;26359;48.750;9.314;2022-12-19T00:15:43;-1.90;99.90
40676;DHT22;26359;48.750;9.314;2022-12-19T00:18:09;-1.90;99.90
40676;DHT22;26359;48.750;9.314;2022-12-19T00:20:34;-1.90;99.90
40676;DHT22;26359;48.750;9.314;2022-12-19T00:23:00;-1.90;99.90
40676;DHT22;26359;48.750;9.314;2022-12-19T00:25:25;-1.80;99.90
40676;DHT22;26359;48.750;9.314;2022-12-19T00:27:51;-1.80;99.90
40676;DHT22;26359;48.750;9.314;2022-12-19T00:30:16;-1.80;99.90
40676;DHT22;26359;48.750;9.314;2022-12-19T00:32:42;-1.80;99.90
40676;DHT22;26359;48.750;9.314;2022-12-19T00:35:08;-1.70;99.90
40676;DHT22;26359;48.750;9.314;2022-12-19T00:37:33;-1.70;99.90
40676;DHT22;26359;48.750;9.314;2022-12-19T00:39:59;-1.60;99.90
40676;DHT22;26359;48.750;9.314;2022-12-19T00:42:24;-1.70;99.90
40676;DHT22;26359;48.750;9.314;2022-12-19T00:44:50;-1.70;99.90
40676;DHT22;26359;48.750;9.314;2022-12-19T00:47:15;-1.60;99.90
40676;DHT22;26359;48.750;9.314;2022-12-19T00:49:41;-1.60;99.90
40676;DHT22;26359;48.750;9.314;2022-12-19T00:52:06;-1.50;99.90
40676;DHT22;26359;48.750;9.314;2022-12-19T00:54:32;-1.60;99.90
40676;DHT22;26359;48.750;9.314;2022-12-19T00:56:57;-1.70;99.90
40676;DHT22;26359;48.750;9.314;2022-12-19T00:59:23;-1.70;99.90
40676;DHT22;26359;48.750;9.314;2022-12-19T01:01:49;-1.70;99.90
40676;DHT22;26359;48.750;9.314;2022-12-19T01:04:14;-1.70;99.90
40676;DHT22;26359;48.750;9.314;2022-12-19T01:06:40;-1.70;99.90
40676;DHT22;26359;48.750;9.314;2022-12-19T01:09:05;-1.70;99.90
40676;DHT22;26359;48.750;9.314;2022-12-19T01:11:31;-1.70;99.90
40676;DHT22;26359;48.750;9.314;2022-12-19T01:14:15;-1.80;99.90
40676;DHT22;26359;48.750;9.314;2022-12-19T01:16:40;-1.70;99.90
40676;DHT22;26359;48.750;9.314;2022-12-19T01:19:06;-1.70;99.90
40676;DHT22;26359;48.750;9.314;2022-12-19T01:21:32;-1.70;99.90
40676;DHT22;26359;48.750;9.314;2022-12-19T01:23:57;-1.70;99.90
40676;DHT22;26359;48.750;9.314;2022-12-19T01:26:23;-1.70;99.90
40676;DHT22;26359;48.750;9.314;2022-12-19T01:28:48;-1.70;99.90
40676;DHT22;26359;48.750;9.314;2022-12-19T01:31:14;-1.70;99.90
40676;DHT22;26359;48.750;9.314;2022-12-19T01:33:40;-1.70;99.90
40676;DHT22;26359;48.750;9.314;2022-12-19T01:36:06;-1.70;99.90
40676;DHT22;26359;48.750;9.314;2022-12-19T01:38:33;-1.70;99.90
40676;DHT22;26359;48.750;9.314;2022-12-19T01:40:59;-1.70;99.90
40676;DHT22;26359;48.750;9.314;2022-12-19T01:43:29;-1.80;99.90
40676;DHT22;26359;48.750;9.314;2022-12-19T01:46:00;-1.80;99.90
40676;DHT22;26359;48.750;9.314;2022-12-19T01:48:35;-1.70;99.90
40676;DHT22;26359;48.750;9.314;2022-12-19T01:51:10;-1.70;99.90
40676;DHT22;26359;48.750;9.314;2022-12-19T01:53:42;-1.70;99.90
40676;DHT22;26359;48.750;9.314;2022-12-19T01:56:09;-1.60;99.90
40676;DHT22;26359;48.750;9.314;2022-12-19T01:58:37;-1.60;99.90
40676;DHT22;26359;48.750;9.314;2022-12-19T02:01:04;-1.60;99.90
40676;DHT22;26359;48.750;9.314;2022-12-19T02:03:32;-1.50;99.90
40676;DHT22;26359;48.750;9.314;2022-12-19T02:05:59;-1.50;99.90
40676;DHT22;26359;48.750;9.314;2022-12-19T02:08:25;-1.40;99.90
40676;DHT22;26359;48.750;9.314;2022-12-19T02:10:52;-1.40;99.90
40676;DHT22;26359;48.750;9.314;2022-12-19T02:13:19;-1.40;99.90
40676;DHT22;26359;48.750;9.314;2022-12-19T02:16:27;-1.30;99.90
40676;DHT22;26359;48.750;9.314;2022-12-19T02:21:53;-1.30;99.90
40676;DHT22;26359;48.750;9.314;2022-12-19T02:30:05;-1.40;99.90
40676;DHT22;26359;48.750;9.314;2022-12-19T02:35:32;-1.30;99.90
40676;DHT22;26359;48.750;9.314;2022-12-19T02:38:11;-1.30;99.90
40676;DHT22;26359;48.750;9.314;2022-12-19T02:40:49;-1.40;99.90
40676;DHT22;26359;48.750;9.314;2022-12-19T02:43:17;-1.40;99.90
40676;DHT22;26359;48.750;9.314;2022-12-19T02:45:44;-1.40;99.90
40676;DHT22;26359;48.750;9.314;2022-12-19T02:48:11;-1.40;99.90
40676;DHT22;26359;48.750;9.314;2022-12-19T02:50:39;-1.40;99.90
40676;DHT22;26359;48.750;9.314;2022-12-19T02:53:05;-1.30;99.90
40676;DHT22;26359;48.750;9.314;2022-12-19T02:55:36;-1.30;99.90
40676;DHT22;26359;48.750;9.314;2022-12-19T03:01:00;-1.20;99.90
40676;DHT22;26359;48.750;9.314;2022-12-19T03:03:33;-1.20;99.90
40676;DHT22;26359;48.750;9.314;2022-12-19T03:11:41;-1.20;99.90
40676;DHT22;26359;48.750;9.314;2022-12-19T03:14:10;-1.20;99.90
40676;DHT22;26359;48.750;9.314;2022-12-19T03:16:37;-1.10;99.90
40676;DHT22;26359;48.750;9.314;2022-12-19T03:19:07;-1.10;99.90
40676;DHT22;26359;48.750;9.314;2022-12-19T03:21:34;-1.10;99.90
40676;DHT22;26359;48.750;9.314;2022-12-19T03:24:00;-1.10;99.90
40676;DHT22;26359;48.750;9.314;2022-12-19T03:26:30;-1.10;99.90
40676;DHT22;26359;48.750;9.314;2022-12-19T03:29:02;-1.10;99.90
40676;DHT22;26359;48.750;9.314;2022-12-19T03:31:31;-1.10;99.90
40676;DHT22;26359;48.750;9.314;2022-12-19T03:34:02;-1.20;99.90
40676;DHT22;26359;48.750;9.314;2022-12-19T03:36:40;-1.10;99.90
40676;DHT22;26359;48.750;9.314;2022-12-19T03:39:08;-1.10;99.90
40676;DHT22;26359;48.750;9.314;2022-12-19T03:41:35;-1.20;99.90
40676;DHT22;26359;48.750;9.314;2022-12-19T03:44:22;-1.20;99.90
40676;DHT22;26359;48.750;9.314;2022-12-19T03:49:53;-1.10;99.90
40676;DHT22;26359;48.750;9.314;2022-12-19T03:57:40;-1.10;99.90
40676;DHT22;26359;48.750;9.314;2022-12-19T04:00:11;-1.10;99.90
40676;DHT22;26359;48.750;9.314;2022-12-19T04:02:39;-1.10;99.90
40676;DHT22;26359;48.750;9.314;2022-12-19T04:05:08;-1.10;99.90
40676;DHT22;26359;48.750;9.314;2022-12-19T04:07:36;-1.10;99.90
40676;DHT22;26359;48.750;9.314;2022-12-19T04:10:07;-1.20;99.90
40676;DHT22;26359;48.750;9.314;2022-12-19T04:12:38;-1.10;99.90
40676;DHT22;26359;48.750;9.314;2022-12-19T04:15:06;-1.00;99.90
40676;DHT22;26359;48.750;9.314;2022-12-19T04:17:46;-1.10;99.90
40676;DHT22;26359;48.750;9.314;2022-12-19T04:20:17;-1.10;99.90
40676;DHT22;26359;48.750;9.314;2022-12-19T04:22:55;-1.00;99.90
40676;DHT22;26359;48.750;9.314;2022-12-19T04:25:37;-1.00;99.90
40676;DHT22;26359;48.750;9.314;2022-12-19T04:28:19;-1.00;99.90
40676;DHT22;26359;48.750;9.314;2022-12-19T04:30:47;-1.00;99.90
40676;DHT22;26359;48.750;9.314;2022-12-19T04:33:13;-0.90;99.90
40676;DHT22;26359;48.750;9.314;2022-12-19T04:35:39;-0.90;99.90
40676;DHT22;26359;48.750;9.314;2022-12-19T04:38:05;-0.80;99.90
40676;DHT22;26359;48.750;9.314;2022-12-19T04:40:31;-0.70;99.90
40676;DHT22;26359;48.750;9.314;2022-12-19T04:42:56;-0.60;99.90
40676;DHT22;26359;48.750;9.314;2022-12-19T04:45:22;-0.60;99.90
40676;DHT22;26359;48.750;9.314;2022-12-19T04:47:47;-0.60;99.90
40676;DHT22;26359;48.750;9.314;2022-12-19T04:50:13;-0.60;99.90
40676;DHT22;26359;48.750;9.314;2022-12-19T04:52:38;-0.50;99.90
40676;DHT22;26359;48.750;9.314;2022-12-19T04:55:04;-0.50;99.90
40676;DHT22;26359;48.750;9.314;2022-12-19T04:57:30;-0.40;99.90
40676;DHT22;26359;48.750;9.314;2022-12-19T04:59:56;-0.40;99.90
40676;DHT22;26359;48.750;9.314;2022-12-19T05:02:22;-0.30;99.90
40676;DHT22;26359;48.750;9.314;2022-12-19T05:04:49;-0.30;99.90
40676;DHT22;26359;48.750;9.314;2022-12-19T05:07:14;-0.30;99.90
40676;DHT22;26359;48.750;9.314;2022-12-19T05:09:40;-0.30;99.90
40676;DHT22;26359;48.750;9.314;2022-12-19T05:12:06;-0.20;99.90
40676;DHT22;26359;48.750;9.314;2022-12-19T05:14:31;-0.20;99.90
40676;DHT22;26359;48.750;9.314;2022-12-19T05:16:57;-0.10;99.90
40676;DHT22;26359;48.750;9.314;2022-12-19T05:19:23;-0.10;99.90
40676;DHT22;26359;48.750;9.314;2022-12-19T05:21:48;0.00;99.90
40676;DHT22;26359;48.750;9.314;2022-12-19T05:24:14;0.10;99.90
40676;DHT22;26359;48.750;9.314;2022-12-19T05:26:40;0.10;99.90
40676;DHT22;26359;48.750;9.314;2022-12-19T05:29:06;0.20;99.90
40676;DHT22;26359;48.750;9.314;2022-12-19T05:31:32;0.20;99.90
40676;DHT22;26359;48.750;9.314;2022-12-19T05:33:58;0.20;99.90
40676;DHT22;26359;48.750;9.314;2022-12-19T05:36:23;0.20;99.90
40676;DHT22;26359;48.750;9.314;2022-12-19T05:38:49;0.20;99.90
40676;DHT22;26359;48.750;9.314;2022-12-19T05:41:17;0.20;99.90
40676;DHT22;26359;48.750;9.314;2022-12-19T05:43:45;0.10;99.90
40676;DHT22;26359;48.750;9.314;2022-12-19T05:46:11;0.10;99.90
40676;DHT22;26359;48.750;9.314;2022-12-19T05:48:37;-0.10;99.90
40676;DHT22;26359;48.750;9.314;2022-12-19T05:51:02;-0.20;99.90
40676;DHT22;26359;48.750;9.314;2022-12-19T05:53:28;-0.20;99.90
40676;DHT22;26359;48.750;9.314;2022-12-19T05:56:05;-0.10;99.90
40676;DHT22;26359;48.750;9.314;2022-12-19T05:58:31;-0.10;99.90
40676;DHT22;26359;48.750;9.314;2022-12-19T06:01:06;-0.10;99.90
40676;DHT22;26359;48.750;9.314;2022-12-19T06:03:32;-0.10;99.90
40676;DHT22;26359;48.750;9.314;2022-12-19T06:06:01;0.00;99.90
40676;DHT22;26359;48.750;9.314;2022-12-19T06:08:27;0.00;99.90
40676;DHT22;26359;48.750;9.314;2022-12-19T06:10:53;0.10;99.90
40676;DHT22;26359;48.750;9.314;2022-12-19T06:13:19;0.10;99.90
40676;DHT22;26359;48.750;9.314;2022-12-19T06:15:44;0.20;99.90
40676;DHT22;26359;48.750;9.314;2022-12-19T06:18:10;0.20;99.90
40676;DHT22;26359;48.750;9.314;2022-12-19T06:20:35;0.20;99.90
40676;DHT22;26359;48.750;9.314;2022-12-19T06:23:01;0.20;99.90
40676;DHT22;26359;48.750;9.314;2022-12-19T06:25:27;0.20;99.90
40676;DHT22;26359;48.750;9.314;2022-12-19T06:27:52;0.10;99.90
40676;DHT22;26359;48.750;9.314;2022-12-19T06:30:18;0.10;99.90
40676;DHT22;26359;48.750;9.314;2022-12-19T06:32:43;0.10;99.90
40676;DHT22;26359;48.750;9.314;2022-12-19T06:35:09;0.10;99.90
40676;DHT22;26359;48.750;9.314;2022-12-19T06:37:34;0.10;99.90
40676;DHT22;26359;48.750;9.314;2022-12-19T06:40:00;0.00;99.90
40676;DHT22;26359;48.750;9.314;2022-12-19T06:42:25;0.00;99.90
40676;DHT22;26359;48.750;9.314;2022-12-19T06:44:52;0.00;99.90
40676;DHT22;26359;48.750;9.314;2022-12-19T06:47:19;0.10;99.90
40676;DHT22;26359;48.750;9.314;2022-12-19T06:49:46;0.00;99.90
40676;DHT22;26359;48.750;9.314;2022-12-19T06:52:13;0.00;99.90
40676;DHT22;26359;48.750;9.314;2022-12-19T06:54:39;0.00;99.90
40676;DHT22;26359;48.750;9.314;2022-12-19T06:57:05;0.10;99.90
40676;DHT22;26359;48.750;9.314;2022-12-19T06:59:32;0.10;99.90
40676;DHT22;26359;48.750;9.314;2022-12-19T07:02:02;0.10;99.90
40676;DHT22;26359;48.750;9.314;2022-12-19T07:04:34;0.50;99.90
40676;DHT22;26359;48.750;9.314;2022-12-19T07:07:01;0.70;99.90
40676;DHT22;26359;48.750;9.314;2022-12-19T07:09:28;1.00;99.90
40676;DHT22;26359;48.750;9.314;2022-12-19T07:11:54;1.10;99.90
40676;DHT22;26359;48.750;9.314;2022-12-19T07:14:20;1.20;99.90
40676;DHT22;26359;48.750;9.314;2022-12-19T07:16:46;1.20;99.90
40676;DHT22;26359;48.750;9.314;2022-12-19T07:19:13;1.30;99.90
40676;DHT22;26359;48.750;9.314;2022-12-19T07:21:39;1.40;99.90
40676;DHT22;26359;48.750;9.314;2022-12-19T07:24:06;1.50;99.90
40676;DHT22;26359;48.750;9.314;2022-12-19T07:26:32;1.50;99.90
40676;DHT22;26359;48.750;9.314;2022-12-19T07:28:58;1.50;99.90
40676;DHT22;26359;48.750;9.314;2022-12-19T07:31:24;1.50;99.90
40676;DHT22;26359;48.750;9.314;2022-12-19T07:33:50;1.50;99.90
40676;DHT22;26359;48.750;9.314;2022-12-19T07:36:15;1.70;99.90
40676;DHT22;26359;48.750;9.314;2022-12-19T07:38:41;1.70;99.90
40676;DHT22;26359;48.750;9.314;2022-12-19T07:41:06;1.60;99.90
40676;DHT22;26359;48.750;9.314;2022-12-19T07:43:32;1.60;99.90
40676;DHT22;26359;48.750;9.314;2022-12-19T07:45:57;1.50;99.90
40676;DHT22;26359;48.750;9.314;2022-12-19T07:48:23;1.50;99.90
40676;DHT22;26359;48.750;9.314;2022-12-19T07:50:49;1.40;99.90
40676;DHT22;26359;48.750;9.314;2022-12-19T07:53:15;1.40;99.90
40676;DHT22;26359;48.750;9.314;2022-12-19T07:55:41;1.40;99.90
40676;DHT22;26359;48.750;9.314;2022-12-19T07:58:07;1.30;99.90
40676;DHT22;26359;48.750;9.314;2022-12-19T08:00:35;1.30;99.90
40676;DHT22;26359;48.750;9.314;2022-12-19T08:03:00;1.20;99.90
40676;DHT22;26359;48.750;9.314;2022-12-19T08:05:26;1.00;99.90
40676;DHT22;26359;48.750;9.314;2022-12-19T08:07:52;1.00;99.90
40676;DHT22;26359;48.750;9.314;2022-12-19T08:10:17;1.00;99.90
40676;DHT22;26359;48.750;9.314;2022-12-19T08:12:44;1.00;99.90
40676;DHT22;26359;48.750;9.314;2022-12-19T08:15:10;1.00;99.90
40676;DHT22;26359;48.750;9.314;2022-12-19T08:17:36;1.00;99.90
40676;DHT22;26359;48.750;9.314;2022-12-19T08:20:03;1.10;99.90
40676;DHT22;26359;48.750;9.314;2022-12-19T08:22:29;1.10;99.90
40676;DHT22;26359;48.750;9.314;2022-12-19T08:24:55;1.10;99.90
40676;DHT22;26359;48.750;9.314;2022-12-19T08:27:22;1.20;99.90
40676;DHT22;26359;48.750;9.314;2022-12-19T08:29:47;1.10;99.90
40676;DHT22;26359;48.750;9.314;2022-12-19T08:32:14;1.20;99.90
40676;DHT22;26359;48.750;9.314;2022-12-19T08:34:40;1.20;99.90
40676;DHT22;26359;48.750;9.314;2022-12-19T08:37:06;1.20;99.90
40676;DHT22;26359;48.750;9.314;2022-12-19T08:39:32;1.20;99.90
40676;DHT22;26359;48.750;9.314;2022-12-19T08:41:57;1.20;99.90
40676;DHT22;26359;48.750;9.314;2022-12-19T08:44:23;1.20;99.90
40676;DHT22;26359;48.750;9.314;2022-12-19T08:46:49;1.10;99.90
40676;DHT22;26359;48.750;9.314;2022-12-19T08:49:14;1.10;99.90
40676;DHT22;26359;48.750;9.314;2022-12-19T08:51:40;1.20;99.90
40676;DHT22;26359;48.750;9.314;2022-12-19T08:54:06;1.20;99.90
40676;DHT22;26359;48.750;9.314;2022-12-19T08:56:32;1.30;99.90
40676;DHT22;26359;48.750;9.314;2022-12-19T08:58:57;1.30;99.90
40676;DHT22;26359;48.750;9.314;2022-12-19T09:01:23;1.30;99.90
40676;DHT22;26359;48.750;9.314;2022-12-19T09:03:52;1.40;99.90
40676;DHT22;26359;48.750;9.314;2022-12-19T09:06:17;1.40;99.90
40676;DHT22;26359;48.750;9.314;2022-12-19T09:08:43;1.50;99.90
40676;DHT22;26359;48.750;9.314;2022-12-19T09:11:14;1.50;99.90
40676;DHT22;26359;48.750;9.314;2022-12-19T09:13:40;1.60;99.90
40676;DHT22;26359;48.750;9.314;2022-12-19T09:16:13;1.60;99.90
40676;DHT22;26359;48.750;9.314;2022-12-19T09:18:39;1.70;99.90
40676;DHT22;26359;48.750;9.314;2022-12-19T09:21:05;1.70;99.90
40676;DHT22;26359;48.750;9.314;2022-12-19T09:23:30;1.80;99.90
40676;DHT22;26359;48.750;9.314;2022-12-19T09:26:10;1.90;99.90
40676;DHT22;26359;48.750;9.314;2022-12-19T09:28:38;1.90;99.90
40676;DHT22;26359;48.750;9.314;2022-12-19T09:31:06;2.10;99.90
40676;DHT22;26359;48.750;9.314;2022-12-19T09:33:33;2.20;99.90
40676;DHT22;26359;48.750;9.314;2022-12-19T09:35:59;2.10;99.90
40676;DHT22;26359;48.750;9.314;2022-12-19T09:38:26;2.20;99.90
40676;DHT22;26359;48.750;9.314;2022-12-19T09:46:56;2.30;99.90
40676;DHT22;26359;48.750;9.314;2022-12-19T09:49:36;2.40;99.90
40676;DHT22;26359;48.750;9.314;2022-12-19T09:52:12;2.40;99.90
40676;DHT22;26359;48.750;9.314;2022-12-19T09:55:02;2.50;99.90
40676;DHT22;26359;48.750;9.314;2022-12-19T09:57:38;2.50;99.90
40676;DHT22;26359;48.750;9.314;2022-12-19T10:00:12;2.60;99.90
40676;DHT22;26359;48.750;9.314;2022-12-19T10:02:48;2.50;99.90
40676;DHT22;26359;48.750;9.314;2022-12-19T10:05:39;2.40;99.90
40676;DHT22;26359;48.750;9.314;2022-12-19T10:08:24;2.40;99.90
40676;DHT22;26359;48.750;9.314;2022-12-19T10:19:10;2.60;99.90
40676;DHT22;26359;48.750;9.314;2022-12-19T10:22:01;2.70;99.90
40676;DHT22;26359;48.750;9.314;2022-12-19T10:24:49;2.90;99.90
40676;DHT22;26359;48.750;9.314;2022-12-19T10:35:40;3.40;99.90
40676;DHT22;26359;48.750;9.314;2022-12-19T10:38:21;3.40;99.90
40676;DHT22;26359;48.750;9.314;2022-12-19T10:41:02;3.50;99.90
40676;DHT22;26359;48.750;9.314;2022-12-19T10:46:16;3.60;99.90
40676;DHT22;26359;48.750;9.314;2022-12-19T10:48:42;3.60;99.90
40676;DHT22;26359;48.750;9.314;2022-12-19T10:51:22;3.60;99.90
40676;DHT22;26359;48.750;9.314;2022-12-19T10:53:54;3.70;99.90
40676;DHT22;26359;48.750;9.314;2022-12-19T10:56:26;3.70;99.90
40676;DHT22;26359;48.750;9.314;2022-12-19T10:58:54;3.90;99.90
40676;DHT22;26359;48.750;9.314;2022-12-19T11:01:32;3.90;99.90
40676;DHT22;26359;48.750;9.314;2022-12-19T11:04:25;3.90;99.90
40676;DHT22;26359;48.750;9.314;2022-12-19T11:09:39;3.70;99.90
40676;DHT22;26359;48.750;9.314;2022-12-19T11:14:35;3.70;99.90
40676;DHT22;26359;48.750;9.314;2022-12-19T11:17:02;3.60;99.90
40676;DHT22;26359;48.750;9.314;2022-12-19T11:19:38;3.70;99.90
40676;DHT22;26359;48.750;9.314;2022-12-19T11:22:26;3.70;99.90
40676;DHT22;26359;48.750;9.314;2022-12-19T11:24:54;3.80;99.90
40676;DHT22;26359;48.750;9.314;2022-12-19T11:30:23;4.00;99.90
40676;DHT22;26359;48.750;9.314;2022-12-19T11:33:13;4.10;99.90
40676;DHT22;26359;48.750;9.314;2022-12-19T11:35:49;4.20;99.90
40676;DHT22;26359;48.750;9.314;2022-12-19T11:38:20;4.40;99.90
40676;DHT22;26359;48.750;9.314;2022-12-19T11:40:55;4.50;99.90
40676;DHT22;26359;48.750;9.314;2022-12-19T11:43:38;4.60;99.90
40676;DHT22;26359;48.750;9.314;2022-12-19T11:46:26;4.60;99.90
40676;DHT22;26359;48.750;9.314;2022-12-19T11:49:37;4.70;99.90
40676;DHT22;26359;48.750;9.314;2022-12-19T11:52:55;4.90;99.90
40676;DHT22;26359;48.750;9.314;2022-12-19T11:54:56;5.20;99.90
40676;DHT22;26359;48.750;9.314;2022-12-19T11:57:24;5.40;99.90
40676;DHT22;26359;48.750;9.314;2022-12-19T11:59:51;5.40;99.90
40676;DHT22;26359;48.750;9.314;2022-12-19T12:16:15;5.00;99.90
40676;DHT22;26359;48.750;9.314;2022-12-19T12:19:09;4.90;99.90
40676;DHT22;26359;48.750;9.314;2022-12-19T12:24:33;4.90;99.90
40676;DHT22;26359;48.750;9.314;2022-12-19T12:27:36;5.00;99.90
40676;DHT22;26359;48.750;9.314;2022-12-19T12:32:51;5.20;99.90
40676;DHT22;26359;48.750;9.314;2022-12-19T12:40:57;4.90;99.90
40676;DHT22;26359;48.750;9.314;2022-12-19T12:46:13;4.80;99.90
40676;DHT22;26359;48.750;9.314;2022-12-19T12:48:45;4.70;99.90
40676;DHT22;26359;48.750;9.314;2022-12-19T12:51:12;4.80;99.90
40676;DHT22;26359;48.750;9.314;2022-12-19T12:53:42;4.70;99.90
40676;DHT22;26359;48.750;9.314;2022-12-19T12:56:09;4.70;99.90
40676;DHT22;26359;48.750;9.314;2022-12-19T13:01:20;4.70;99.90
40676;DHT22;26359;48.750;9.314;2022-12-19T13:04:03;4.60;99.90
40676;DHT22;26359;48.750;9.314;2022-12-19T13:06:40;4.60;99.90
40676;DHT22;26359;48.750;9.314;2022-12-19T13:11:44;4.60;99.90
40676;DHT22;26359;48.750;9.314;2022-12-19T13:17:05;4.70;99.90
40676;DHT22;26359;48.750;9.314;2022-12-19T13:19:33;4.70;99.90
40676;DHT22;26359;48.750;9.314;2022-12-19T13:22:13;4.70;99.90
40676;DHT22;26359;48.750;9.314;2022-12-19T13:24:54;4.60;99.90
40676;DHT22;26359;48.750;9.314;2022-12-19T13:35:30;4.60;99.90
40676;DHT22;26359;48.750;9.314;2022-12-19T13:40:59;4.50;99.90
40676;DHT22;26359;48.750;9.314;2022-12-19T13:43:40;4.40;99.90
40676;DHT22;26359;48.750;9.314;2022-12-19T13:49:09;4.30;99.90
40676;DHT22;26359;48.750;9.314;2022-12-19T13:51:56;4.40;99.90
40676;DHT22;26359;48.750;9.314;2022-12-19T13:54:31;4.40;99.90
40676;DHT22;26359;48.750;9.314;2022-12-19T13:56:59;4.40;99.90
40676;DHT22;26359;48.750;9.314;2022-12-19T13:59:27;4.40;99.90
40676;DHT22;26359;48.750;9.314;2022-12-19T14:02:13;4.50;99.90
40676;DHT22;26359;48.750;9.314;2022-12-19T14:04:40;4.50;99.90
40676;DHT22;26359;48.750;9.314;2022-12-19T14:07:24;4.50;99.90
40676;DHT22;26359;48.750;9.314;2022-12-19T14:09:52;4.50;99.90
40676;DHT22;26359;48.750;9.314;2022-12-19T14:12:30;4.50;99.90
40676;DHT22;26359;48.750;9.314;2022-12-19T14:15:38;4.50;99.90
40676;DHT22;26359;48.750;9.314;2022-12-19T14:18:21;4.50;99.90
40676;DHT22;26359;48.750;9.314;2022-12-19T14:21:05;4.40;99.90
40676;DHT22;26359;48.750;9.314;2022-12-19T14:23:31;4.40;99.90
40676;DHT22;26359;48.750;9.314;2022-12-19T14:25:57;4.30;99.90
40676;DHT22;26359;48.750;9.314;2022-12-19T14:28:51;4.30;99.90
40676;DHT22;26359;48.750;9.314;2022-12-19T14:31:18;4.20;99.90
40676;DHT22;26359;48.750;9.314;2022-12-19T14:33:46;4.20;99.90
40676;DHT22;26359;48.750;9.314;2022-12-19T14:36:18;4.20;99.90
40676;DHT22;26359;48.750;9.314;2022-12-19T14:38:44;4.10;99.90
40676;DHT22;26359;48.750;9.314;2022-12-19T14:44:12;4.20;99.90
40676;DHT22;26359;48.750;9.314;2022-12-19T14:46:38;4.10;99.90
40676;DHT22;26359;48.750;9.314;2022-12-19T14:49:29;4.10;99.90
40676;DHT22;26359;48.750;9.314;2022-12-19T14:51:55;4.10;99.90
40676;DHT22;26359;48.750;9.314;2022-12-19T14:54:22;4.20;99.90
40676;DHT22;26359;48.750;9.314;2022-12-19T14:59:34;4.20;99.90
40676;DHT22;26359;48.750;9.314;2022-12-19T15:02:46;4.20;99.90
40676;DHT22;26359;48.750;9.314;2022-12-19T15:05:12;4.20;99.90
40676;DHT22;26359;48.750;9.314;2022-12-19T15:07:42;4.20;99.90
40676;DHT22;26359;48.750;9.314;2022-12-19T15:10:16;4.20;99.90
40676;DHT22;26359;48.750;9.314;2022-12-19T15:12:55;4.10;99.90
40676;DHT22;26359;48.750;9.314;2022-12-19T15:15:49;4.00;99.90
40676;DHT22;26359;48.750;9.314;2022-12-19T15:20:41;3.90;99.90
40676;DHT22;26359;48.750;9.314;2022-12-19T15:23:07;3.90;99.90
40676;DHT22;26359;48.750;9.314;2022-12-19T15:25:33;3.80;99.90
40676;DHT22;26359;48.750;9.314;2022-12-19T15:27:59;3.70;99.90
40676;DHT22;26359;48.750;9.314;2022-12-19T15:30:25;3.70;99.90
40676;DHT22;26359;48.750;9.314;2022-12-19T15:32:54;3.60;99.90
40676;DHT22;26359;48.750;9.314;2022-12-19T15:35:19;3.70;99.90
40676;DHT22;26359;48.750;9.314;2022-12-19T15:37:45;3.80;99.90
40676;DHT22;26359;48.750;9.314;2022-12-19T15:40:16;3.80;99.90
40676;DHT22;26359;48.750;9.314;2022-12-19T15:42:43;3.90;99.90
40676;DHT22;26359;48.750;9.314;2022-12-19T15:45:16;4.00;99.90
40676;DHT22;26359;48.750;9.314;2022-12-19T15:47:44;3.90;99.90
40676;DHT22;26359;48.750;9.314;2022-12-19T15:52:42;3.80;99.90
40676;DHT22;26359;48.750;9.314;2022-12-19T15:55:12;3.70;99.90
40676;DHT22;26359;48.750;9.314;2022-12-19T15:57:40;3.70;99.90
40676;DHT22;26359;48.750;9.314;2022-12-19T16:00:30;3.60;99.90
40676;DHT22;26359;48.750;9.314;2022-12-19T16:02:56;3.60;99.90
40676;DHT22;26359;48.750;9.314;2022-12-19T16:05:23;3.50;99.90
40676;DHT22;26359;48.750;9.314;2022-12-19T16:07:49;3.50;99.90
40676;DHT22;26359;48.750;9.314;2022-12-19T16:10:16;3.40;99.90
40676;DHT22;26359;48.750;9.314;2022-12-19T16:12:43;3.30;99.90
40676;DHT22;26359;48.750;9.314;2022-12-19T16:17:47;3.40;99.90
40676;DHT22;26359;48.750;9.314;2022-12-19T16:20:25;3.40;99.90
40676;DHT22;26359;48.750;9.314;2022-12-19T16:22:51;3.30;99.90
40676;DHT22;26359;48.750;9.314;2022-12-19T16:25:18;3.30;99.90
40676;DHT22;26359;48.750;9.314;2022-12-19T16:27:44;3.30;99.90
40676;DHT22;26359;48.750;9.314;2022-12-19T16:30:17;3.40;99.90
40676;DHT22;26359;48.750;9.314;2022-12-19T16:32:43;3.50;99.90
40676;DHT22;26359;48.750;9.314;2022-12-19T16:35:14;3.50;99.90
40676;DHT22;26359;48.750;9.314;2022-12-19T16:37:40;3.50;99.90
40676;DHT22;26359;48.750;9.314;2022-12-19T16:40:08;3.50;99.90
40676;DHT22;26359;48.750;9.314;2022-12-19T16:42:37;3.50;99.90
40676;DHT22;26359;48.750;9.314;2022-12-19T16:45:03;3.50;99.90
40676;DHT22;26359;48.750;9.314;2022-12-19T16:47:29;3.40;99.90
40676;DHT22;26359;48.750;9.314;2022-12-19T16:49:54;3.40;99.90
40676;DHT22;26359;48.750;9.314;2022-12-19T16:52:20;3.40;99.90
40676;DHT22;26359;48.750;9.314;2022-12-19T16:54:45;3.40;99.90
40676;DHT22;26359;48.750;9.314;2022-12-19T16:57:19;3.40;99.90
40676;DHT22;26359;48.750;9.314;2022-12-19T16:59:46;3.40;99.90
40676;DHT22;26359;48.750;9.314;2022-12-19T17:02:52;3.50;99.90
40676;DHT22;26359;48.750;9.314;2022-12-19T17:05:24;3.60;99.90
40676;DHT22;26359;48.750;9.314;2022-12-19T17:07:51;3.60;99.90
40676;DHT22;26359;48.750;9.314;2022-12-19T17:10:18;3.50;99.90
40676;DHT22;26359;48.750;9.314;2022-12-19T17:12:44;3.50;99.90
40676;DHT22;26359;48.750;9.314;2022-12-19T17:17:42;3.50;99.90
40676;DHT22;26359;48.750;9.314;2022-12-19T17:20:17;3.40;99.90
40676;DHT22;26359;48.750;9.314;2022-12-19T17:22:45;3.40;99.90
40676;DHT22;26359;48.750;9.314;2022-12-19T17:25:18;3.40;99.90
40676;DHT22;26359;48.750;9.314;2022-12-19T17:27:44;3.30;99.90
40676;DHT22;26359;48.750;9.314;2022-12-19T17:30:10;3.30;99.90
40676;DHT22;26359;48.750;9.314;2022-12-19T17:32:36;3.20;99.90
40676;DHT22;26359;48.750;9.314;2022-12-19T17:35:01;3.20;99.90
40676;DHT22;26359;48.750;9.314;2022-12-19T17:37:27;3.10;99.90
40676;DHT22;26359;48.750;9.314;2022-12-19T17:39:53;3.10;99.90
40676;DHT22;26359;48.750;9.314;2022-12-19T17:42:21;3.00;99.90
40676;DHT22;26359;48.750;9.314;2022-12-19T17:44:47;2.90;99.90
40676;DHT22;26359;48.750;9.314;2022-12-19T17:47:14;2.90;99.90
40676;DHT22;26359;48.750;9.314;2022-12-19T17:49:40;3.00;99.90
40676;DHT22;26359;48.750;9.314;2022-12-19T17:52:14;3.00;99.90
40676;DHT22;26359;48.750;9.314;2022-12-19T17:54:40;3.10;99.90
40676;DHT22;26359;48.750;9.314;2022-12-19T17:57:12;3.20;99.90
40676;DHT22;26359;48.750;9.314;2022-12-19T17:59:38;3.30;99.90
40676;DHT22;26359;48.750;9.314;2022-12-19T18:02:18;3.30;99.90
40676;DHT22;26359;48.750;9.314;2022-12-19T18:04:45;3.30;99.90